Terminal Aerodrome Forecast
Issued by NWS

Home | Current Version | Previous Version | Text Only | Print | Product List | Glossary On
Versions: 1 2 3 4 5 6 7 8 9 10 11 12 13 14 15 16 17 18 19 20 21 22 23 24 25 26 27 28
000
FTUS43 KDVN 291324 AAA
TAFBRL
TAF AMD
KBRL 291324Z 2913/3012 35005KT 6SM BR OVC006
      TEMPO 2913/2914 6SM BR SCT006 BKN018
     FM291500 30005KT P6SM BKN030
     FM292100 31007KT P6SM VCTS BKN050CB
     FM300300 24005KT P6SM BKN040
     FM300700 29005KT P6SM SCT040=

USA.gov is the U.S. government's official web portal to all federal, state and local government web resources and services.